• Join FlightAware (Why Join?)
  • Login
  • US Flag 
06:54PM EDT


 

Airport Tracker/Info


-or-


 

Live Flight TrackerFlight Track Log ✈ VNR160 ✈ 27-Apr-2013 ✈ KDAL - MMSD / SJD

Flight Track Log - Related Links

Times and Time Zones

All times are in EDT time to prevent confusion due to time zone crossing. See the VNR160 flight status page for this flight to view local times or setup timezone preferences in your user account.

Time Position Orientation Groundspeed Altitude Reporting Facility
EDT Latitude Longitude Course Direction KTS MPH feet Rate Location/Type
09:28AM 32.8667 -96.8667 259° West 144 166 1,600  Level Dallas / Fort Worth TRACON
09:29AM 32.9000 -96.9000 320° Northwest 155 178 3,700 1,140 Climbing Dallas / Fort Worth TRACON
09:30AM 32.9000 -96.9667 270° West 195 224 4,000 120 Climbing Dallas / Fort Worth TRACON
09:31AM 32.9000 -97.0333 270° West 197 227 4,000  Level Dallas / Fort Worth TRACON
09:32AM 32.9000 -97.1000 270° West 193 222 4,000  Level Dallas / Fort Worth TRACON
09:33AM 32.9000 -97.1667 270° West 192 221 4,000  Level Dallas / Fort Worth TRACON
09:34AM 32.7895 -97.3799 259° West  Level FlightAware Approximate
09:34AM 32.9000 -97.2167 270° West 191 220 4,000  Level Dallas / Fort Worth TRACON
09:36AM 32.8708 -97.3219 252° West 202 232 5,900 1,440 Climbing Fort Worth Center
09:37AM 32.8606 -97.3739 257° West 197 227 7,800 1,020 Climbing Fort Worth Center
09:38AM 32.8439 -97.4531 256° West 213 245 8,000 900 Climbing Fort Worth Center
09:39AM 32.8292 -97.5147 254° West 223 257 9,700 2,100 Climbing Fort Worth Center
09:40AM 32.8144 -97.5864 256° West 217 250 12,200 2,220 Climbing Fort Worth Center
09:41AM 32.7975 -97.6506 253° West 212 244 14,200 2,040 Climbing Fort Worth Center
09:42AM 32.7850 -97.7172 257° West 207 238 16,300 2,040 Climbing Fort Worth Center
09:43AM 32.7703 -97.7839 255° West 207 238 18,300 1,800 Climbing Fort Worth Center
09:44AM 32.7575 -97.8433 256° West 200 230 20,000 1,620 Climbing Fort Worth Center
09:45AM 32.7425 -97.9122 256° West 209 241 21,600 1,620 Climbing Fort Worth Center
09:46AM 32.7297 -97.9764 257° West 209 241 23,300 1,440 Climbing Fort Worth Center
09:47AM 32.7189 -98.0531 260° West 225 259 24,500 1,260 Climbing Fort Worth Center
09:48AM 32.7103 -98.1269 262° West 230 265 25,900 1,500 Climbing Fort Worth Center
09:49AM 32.7014 -98.2058 262° West 236 272 27,500 1,440 Climbing Fort Worth Center
09:50AM 32.6906 -98.2847 261° West 236 272 28,800 1,320 Climbing Fort Worth Center
09:51AM 32.6794 -98.3586 260° West 242 278 30,200 1,140 Climbing Fort Worth Center
09:52AM 32.6725 -98.4375 264° West 242 278 31,100 780 Climbing Fort Worth Center
09:53AM 32.6594 -98.5067 257° West 237 273 31,800 720 Climbing Fort Worth Center
09:54AM 32.6525 -98.5856 264° West 242 278 32,600 720 Climbing Fort Worth Center
09:55AM 32.6392 -98.6667 259° West 247 284 33,300 600 Climbing Fort Worth Center
09:56AM 32.6278 -98.7481 261° West 252 290 33,900 600 Climbing Fort Worth Center
09:57AM 32.6186 -98.8292 262° West 252 290 34,500 540 Climbing Fort Worth Center
09:58AM 32.6094 -98.9128 263° West 257 296 35,000 420 Climbing Fort Worth Center
09:59AM 32.5978 -98.9942 260° West 257 296 35,400 360 Climbing Fort Worth Center
10:00AM 32.5864 -99.0753 261° West 257 296 35,800 300 Climbing Fort Worth Center
10:01AM 32.5747 -99.1614 261° West 257 296 36,000 60 Climbing Fort Worth Center
10:02AM 32.5631 -99.2472 261° West 257 296 36,000  Level Fort Worth Center
10:03AM 32.5514 -99.3383 261° West 270 311 36,000  Level Fort Worth Center
10:04AM 32.5394 -99.4292 261° West 280 322 36,000  Level Fort Worth Center
10:05AM 32.5256 -99.5175 259° West 280 322 36,100 300 Climbing Fort Worth Center
10:06AM 32.5136 -99.6086 261° West 280 322 36,600 420 Climbing Fort Worth Center
10:07AM 32.5017 -99.6919 260° West 275 316 37,000 300 Climbing Fort Worth Center
10:08AM 32.4875 -99.7778 259° West 275 316 37,300 300 Climbing Fort Worth Center
10:09AM 32.4753 -99.8636 260° West 275 316 37,600 240 Climbing Fort Worth Center
10:10AM 32.4383 -99.9489 243° Southwest 275 316 37,800 180 Climbing Fort Worth Center
10:11AM 32.4011 -100.0264 240° Southwest 275 316 38,000 60 Climbing Fort Worth Center
10:12AM 32.3639 -100.1042 240° Southwest 275 316 38,000  Level Fort Worth Center
10:13AM 32.3289 -100.1817 242° Southwest 275 316 38,000  Level Fort Worth Center
10:14AM 32.2917 -100.2617 241° Southwest 275 316 38,000  Level Fort Worth Center
10:15AM 32.2522 -100.3439 240° Southwest 280 322 38,000  Level Fort Worth Center
10:16AM 32.2128 -100.4236 240° Southwest 280 322 38,000  Level Fort Worth Center
10:17AM 32.1753 -100.5058 242° Southwest 285 328 38,000  Level Fort Worth Center
10:18AM 32.1358 -100.5831 239° Southwest 285 328 38,000  Level Fort Worth Center
10:19AM 32.0981 -100.6650 241° Southwest 285 328 38,000  Level Fort Worth Center
10:20AM 32.0583 -100.7469 240° Southwest 290 334 38,000  Level Fort Worth Center
10:21AM 32.0208 -100.8264 241° Southwest 290 334 38,000  Level Fort Worth Center
10:22AM 31.9789 -100.9106 240° Southwest 290 334 38,000  Level Fort Worth Center
10:23AM 31.9497 -100.9806 244° Southwest 285 328 38,000  Level Fort Worth Center
10:24AM 31.9097 -101.0622 240° Southwest 285 328 38,000  Level Fort Worth Center
10:25AM 31.8719 -101.1439 241° Southwest 290 334 38,000  Level Fort Worth Center
10:26AM 31.8297 -101.2253 239° Southwest 290 334 38,000  Level Fort Worth Center
10:28AM 31.7653 -101.3519 239° Southwest 288 331 38,000  Level Houston Center
10:28AM 31.7333 -101.4156 239° Southwest 285 328 38,000  Level Albuquerque Center
10:29AM 31.6931 -101.4958 239° Southwest 286 329 38,000  Level Albuquerque Center
10:30AM 31.6533 -101.5753 240° Southwest 284 327 38,000  Level Albuquerque Center
10:31AM 31.6142 -101.6558 240° Southwest 284 327 38,000  Level Albuquerque Center
10:32AM 31.5747 -101.7350 240° Southwest 283 326 38,000  Level Albuquerque Center
10:33AM 31.5278 -101.8306 240° Southwest 284 327 38,000  Level Albuquerque Center
10:35AM 31.4900 -101.9056 239° Southwest 283 326 38,000  Level Albuquerque Center
10:36AM 31.4475 -101.9889 239° Southwest 294 338 38,000  Level Albuquerque Center
10:37AM 31.4092 -102.0697 241° Southwest 287 330 38,000  Level Albuquerque Center
10:38AM 31.3694 -102.1478 239° Southwest 281 323 38,000  Level Albuquerque Center
10:39AM 31.3286 -102.2297 240° Southwest 287 330 38,000  Level Albuquerque Center
10:40AM 31.2892 -102.3083 240° Southwest 284 327 38,000  Level Albuquerque Center
10:41AM 31.2417 -102.4039 240° Southwest 283 326 38,000  Level Albuquerque Center
10:42AM 31.2003 -102.4836 239° Southwest 286 329 38,000  Level Albuquerque Center
10:43AM 31.1633 -102.5581 240° Southwest 281 323 38,000  Level Albuquerque Center
10:44AM 31.1228 -102.6361 239° Southwest 281 323 38,000  Level Albuquerque Center
10:45AM 31.0833 -102.7153 240° Southwest 283 326 38,000  Level Albuquerque Center
10:46AM 31.0361 -102.8083 239° Southwest 280 322 38,000  Level Albuquerque Center
10:47AM 30.9950 -102.8864 238° Southwest 281 323 38,000  Level Albuquerque Center
10:48AM 30.9547 -102.9653 239° Southwest 282 325 38,000  Level Albuquerque Center
10:49AM 30.9072 -103.0394 233° Southwest 286 329 38,000  Level Albuquerque Center
10:50AM 30.8544 -103.1094 229° Southwest 287 330 38,000  Level Albuquerque Center
10:51AM 30.8053 -103.1833 232° Southwest 288 331 38,000  Level Albuquerque Center
10:52AM 30.7558 -103.2564 232° Southwest 287 330 38,000  Level Albuquerque Center
10:53AM 30.6944 -103.3433 231° Southwest 289 333 38,000  Level Albuquerque Center
10:54AM 30.6433 -103.4156 231° Southwest 290 334 38,000  Level Albuquerque Center
10:55AM 30.5919 -103.4878 230° Southwest 290 334 38,000  Level Albuquerque Center
10:56AM 30.5411 -103.5606 231° Southwest 291 335 38,000  Level Albuquerque Center
10:57AM 30.4903 -103.6331 231° Southwest 290 334 38,000  Level Albuquerque Center
10:58AM 30.4397 -103.7058 231° Southwest 291 335 38,000  Level Albuquerque Center
10:59AM 30.3764 -103.7917 229° Southwest 291 335 38,000  Level Albuquerque Center
11:00AM 30.3297 -103.8600 232° Southwest 293 337 38,000  Level Albuquerque Center
11:01AM 30.2769 -103.9317 230° Southwest 292 336 38,000  Level Albuquerque Center
11:02AM 30.2250 -104.0050 231° Southwest 293 337 38,000  Level Albuquerque Center
11:03AM 30.1728 -104.0775 230° Southwest 293 337 38,000  Level Albuquerque Center
11:04AM 30.1208 -104.1500 230° Southwest 293 337 38,000  Level Albuquerque Center
11:05AM 30.0575 -104.2367 230° Southwest 293 337 38,000  Level Albuquerque Center
11:06AM 30.0053 -104.3094 230° Southwest 294 338 38,000  Level Albuquerque Center
11:07AM 29.9422 -104.3725 221° Southwest 306 352 38,000  Level Albuquerque Center
11:08AM 29.8717 -104.4256 213° Southwest 305 351 38,000  Level Albuquerque Center
11:09AM 29.8006 -104.4806 214° Southwest 306 352 38,000  Level Albuquerque Center
11:11AM 29.7822 -104.5727 257° West  Level FlightAware Approximate
11:18AM 29.4523 -105.0774 230° Southwest  Level FlightAware Approximate
11:19AM 29.4009 -105.1468 230° Southwest  Level FlightAware Approximate
11:20AM 29.3495 -105.2162 230° Southwest  Level FlightAware Approximate
11:21AM 29.2980 -105.2855 230° Southwest  Level FlightAware Approximate
11:22AM 29.2465 -105.3547 230° Southwest  Level FlightAware Approximate
11:23AM 29.1950 -105.4239 230° Southwest  Level FlightAware Approximate
11:24AM 29.1434 -105.4930 229° Southwest  Level FlightAware Approximate
11:25AM 29.0918 -105.5620 229° Southwest  Level FlightAware Approximate
11:26AM 29.0401 -105.6309 229° Southwest  Level FlightAware Approximate
11:27AM 28.9884 -105.6998 229° Southwest  Level FlightAware Approximate
11:28AM 28.9367 -105.7686 229° Southwest  Level FlightAware Approximate
11:29AM 28.8850 -105.8374 229° Southwest  Level FlightAware Approximate
11:30AM 28.8332 -105.9061 229° Southwest  Level FlightAware Approximate
11:31AM 28.7730 -105.9606 199° South  Level FlightAware Approximate
11:32AM 28.6979 -105.9900 199° South  Level FlightAware Approximate
11:33AM 28.6228 -106.0193 199° South  Level FlightAware Approximate
11:34AM 28.5478 -106.0486 199° South  Level FlightAware Approximate
11:35AM 28.4727 -106.0779 199° South  Level FlightAware Approximate
11:36AM 28.3976 -106.1071 199° South  Level FlightAware Approximate
11:37AM 28.3225 -106.1363 199° South  Level FlightAware Approximate
11:38AM 28.2474 -106.1654 199° South  Level FlightAware Approximate
11:39AM 28.1722 -106.1945 199° South  Level FlightAware Approximate
11:40AM 28.0971 -106.2235 199° South  Level FlightAware Approximate
11:41AM 28.0220 -106.2526 199° South  Level FlightAware Approximate
11:42AM 27.9468 -106.2815 199° South  Level FlightAware Approximate
11:43AM 27.8717 -106.3105 199° South  Level FlightAware Approximate
11:44AM 27.7966 -106.3393 199° South  Level FlightAware Approximate
11:45AM 27.7214 -106.3682 199° South  Level FlightAware Approximate
11:46AM 27.6462 -106.3970 199° South  Level FlightAware Approximate
11:47AM 27.5711 -106.4258 199° South  Level FlightAware Approximate
11:48AM 27.4959 -106.4545 199° South  Level FlightAware Approximate
11:49AM 27.4207 -106.4832 199° South  Level FlightAware Approximate
11:50AM 27.3456 -106.5119 199° South  Level FlightAware Approximate
11:51AM 27.2704 -106.5405 199° South  Level FlightAware Approximate
11:52AM 27.1952 -106.5691 199° South  Level FlightAware Approximate
11:53AM 27.1200 -106.5976 199° South  Level FlightAware Approximate
11:54AM 27.0448 -106.6261 199° South  Level FlightAware Approximate
11:55AM 26.9696 -106.6546 199° South  Level FlightAware Approximate
11:56AM 26.8943 -106.6830 199° South  Level FlightAware Approximate
11:57AM 26.8191 -106.7114 199° South  Level FlightAware Approximate
11:58AM 26.7439 -106.7398 199° South  Level FlightAware Approximate
11:59AM 26.6683 -106.7670 197° South  Level FlightAware Approximate
12:00PM 26.5926 -106.7935 197° South  Level FlightAware Approximate
12:01PM 26.5168 -106.8200 197° South  Level FlightAware Approximate
12:02PM 26.4411 -106.8465 197° South  Level FlightAware Approximate
12:03PM 26.3655 -106.8736 199° South  Level FlightAware Approximate
12:04PM 26.2905 -106.9025 199° South  Level FlightAware Approximate
12:05PM 26.2155 -106.9315 199° South  Level FlightAware Approximate
12:06PM 26.1405 -106.9604 199° South  Level FlightAware Approximate
12:07PM 26.0655 -106.9893 199° South  Level FlightAware Approximate
12:08PM 25.9905 -107.0181 199° South  Level FlightAware Approximate
12:09PM 25.9154 -107.0469 199° South  Level FlightAware Approximate
12:10PM 25.8404 -107.0757 199° South  Level FlightAware Approximate
12:11PM 25.7654 -107.1044 199° South  Level FlightAware Approximate
12:12PM 25.6902 -107.1328 199° South  Level FlightAware Approximate
12:13PM 25.6150 -107.1608 199° South  Level FlightAware Approximate
12:14PM 25.5397 -107.1888 199° South  Level FlightAware Approximate
12:15PM 25.4645 -107.2168 199° South  Level FlightAware Approximate
12:16PM 25.3892 -107.2447 199° South  Level FlightAware Approximate
12:17PM 25.3140 -107.2727 199° South  Level FlightAware Approximate
12:18PM 25.2387 -107.3005 199° South  Level FlightAware Approximate
12:19PM 25.1634 -107.3284 199° South  Level FlightAware Approximate
12:20PM 25.0876 -107.3542 197° South  Level FlightAware Approximate
12:21PM 25.0116 -107.3796 197° South  Level FlightAware Approximate
12:22PM 24.9356 -107.4049 197° South  Level FlightAware Approximate
12:23PM 24.8597 -107.4302 197° South  Level FlightAware Approximate
12:24PM 24.7837 -107.4555 197° South  Level FlightAware Approximate
12:25PM 24.7287 -107.5093 241° Southwest  Level FlightAware Approximate
12:26PM 24.6830 -107.5805 232° Southwest  Level FlightAware Approximate
12:27PM 24.6340 -107.6491 232° Southwest  Level FlightAware Approximate
12:28PM 24.5824 -107.7155 229° Southwest  Level FlightAware Approximate
12:29PM 24.5308 -107.7818 229° Southwest  Level FlightAware Approximate
12:30PM 24.4816 -107.8502 232° Southwest  Level FlightAware Approximate
12:31PM 24.4332 -107.9193 232° Southwest  Level FlightAware Approximate
12:32PM 24.3853 -107.9888 234° Southwest  Level FlightAware Approximate
12:33PM 24.3377 -108.0585 233° Southwest  Level FlightAware Approximate
12:34PM 24.2897 -108.1279 233° Southwest  Level FlightAware Approximate
12:35PM 24.2417 -108.1972 233° Southwest  Level FlightAware Approximate
12:36PM 24.1933 -108.2662 232° Southwest  Level FlightAware Approximate
12:37PM 24.1443 -108.3346 232° Southwest  Level FlightAware Approximate
12:38PM 24.0934 -108.4014 230° Southwest  Level FlightAware Approximate
12:39PM 24.0420 -108.4675 230° Southwest  Level FlightAware Approximate
12:40PM 23.9924 -108.5354 233° Southwest  Level FlightAware Approximate
12:41PM 23.9447 -108.6048 233° Southwest  Level FlightAware Approximate
12:42PM 23.8970 -108.6742 233° Southwest  Level FlightAware Approximate
12:43PM 23.8493 -108.7435 233° Southwest  Level FlightAware Approximate
12:44PM 23.7999 -108.8114 231° Southwest  Level FlightAware Approximate
12:45PM 23.7496 -108.8785 231° Southwest  Level FlightAware Approximate
12:46PM 23.6993 -108.9456 231° Southwest  Level FlightAware Approximate
12:47PM 23.6489 -109.0126 231° Southwest  Level FlightAware Approximate
12:48PM 23.5986 -109.0796 231° Southwest  Level FlightAware Approximate
12:49PM 23.5484 -109.1466 231° Southwest  Level FlightAware Approximate
12:50PM 23.5007 -109.2158 234° Southwest  Level FlightAware Approximate
12:51PM 23.4540 -109.2858 234° Southwest  Level FlightAware Approximate
12:52PM 23.4073 -109.3557 234° Southwest  Level FlightAware Approximate
12:53PM 23.3560 -109.4217 229° Southwest  Level FlightAware Approximate
12:54PM 23.3070 -109.4895 234° Southwest  Level FlightAware Approximate
12:55PM 23.2573 -109.5569 231° Southwest  Level FlightAware Approximate
12:56PM 23.2055 -109.6223 229° Southwest  Level FlightAware Approximate
12:57PM 23.1545 -109.6885 231° Southwest  Level FlightAware Approximate
12:58PM 23.1333 -109.7167 231° Southwest  Level FlightAware Approximate
12:59PM 23.1518 -109.7210 231° Southwest  Level Estimated
01:00PM 23.1518 -109.7210 231° Southwest  Level Estimated
01:01PM 23.1518 -109.7210 231° Southwest  Level Estimated
01:02PM 23.1518 -109.7210 231° Southwest  Level Estimated
01:03PM 23.1518 -109.7210 231° Southwest  Level Estimated
01:04PM 23.1518 -109.7210 231° Southwest  Level Estimated